Terminal Aerodrome Forecast
Issued by NWS Glasgow, MT

Home | Current Version | Previous Version | Text Only | Print | Product List | Glossary On
Versions: 1 2 3 4 5 6 7 8 9 10 11 12 13 14 15
000
FTUS45 KGGW 031100
TAFGGW
TAF
KGGW 031125Z 0312/0412 32008KT P6SM SCT100
     FM031600 30008KT P6SM SCT150
     FM032300 36007KT P6SM SCT200
     FM040300 08008KT P6SM SCT200=

USA.gov is the U.S. government's official web portal to all federal, state and local government web resources and services.